Aeroporto :
LOGIN :

Iscrizione | Disclaimer

   EN    FR    IT 

 










Sommario :    VFR   VFR Marginale   IFR   IFR Intensivo   IFR Molto Intensivo
Visibilità : 
Base nubi : 
>= 8 km
>= 3000ft
5 / 8 km
1000 / 3000 ft
1500m / 5 km
500 / 1000 ft
800 / 1500m
200 / 500 ft
< 800m
< 200 ft
Simboli :   Temporali  Nebbia  Neve Forte  Precipitazioni Forti  Vento > 20 kt
SIGMETs :   Varie  Temporali  Ghiacco  Turbolenza  Onda orograficha  Ceneri Vulcaniche






- Altitudine del aeroporto : 218 ft
- Codice IATA : LBG


LFPB - Paris / Le Bourget

ULTIMO METAR :
  • 140600Z AUTO 10004KT 060V120 CAVOK 15/13 Q1009 NOSIG

METARs OBSOLETI :
  • 140530Z AUTO 09004KT CAVOK 14/13 Q1009 NOSIG
  • 140500Z AUTO 08004KT CAVOK 14/12 Q1009 TEMPO 3000 BR
  • 140430Z AUTO 06003KT 030V090 CAVOK 14/12 Q1010 TEMPO 3000 BR
  • 140400Z AUTO 06006KT 9999 FEW033 SCT039 BKN120 14/12 Q1010
  • 140330Z AUTO 05005KT 9999 BKN032 BKN043 OVC110 14/12 Q1011

TAF TAF LFPB
Valido dal 14 a 06 ore il 15 a 06 ore UTC


140500Z 1406/1506 13010KT CAVOK
PROB40
TEMPO 1413/1420 16015G25KT 4000 SHRA SCT040CB
PROB40
TEMPO 1418/1419 20020G45KT 2000 TSRAGR
BECMG 1419/1421 21012KT BKN020
PROB40
TEMPO 1423/1506 4000 -RA BKN012 BKN040
ATIS : +33 1 48 62 43 92



MetMap, La meteo Aeronautica in un colpo d'occhio ! - Copyright ORBIFLY Dicembre 2007 - Disclaimer

ORBIFLY MET'MAP TEAM :

Programmazione e sviluppo : Alexandra Zaïnal
Concezione e sviluppo : Baudouin d'Aumeries
Co-Programmazione e sviluppo : Marc-Olivier Méhu
Supporto tecnico e logistico : Manuel Goepfert
Aiuto per la traduzione : Arnaldo La Scala

Contatto : metmap@orbifly.com




FONTI E CREDITI :

   NOAA